Time;durP1;ratioP1;P1;durP2;ratioP2;P2;SDS_P1;SDS_P2;PMS_P1;PMS_P2;Temp;Humidity;BMP_temperature;BMP_pressure;BME280_temperature;BME280_humidity;BME280_pressure;Samples;Min_cycle;Max_cycle;Signal;HPM_P1;HPM_P2
2022/10/04 00:00:27;;;;;;;9.00;2.17;;;18.80;73.90;;;;;;5107064;27;20099;-70
2022/10/04 04:19:42;;;;;;;43.95;23.52;;;18.10;79.60;;;;;;4945618;28;4125052;-67
2022/10/04 04:22:16;;;;;;;40.55;14.95;;;18.20;79.30;;;;;;5084750;28;20099;-67
2022/10/04 04:24:43;;;;;;;21.92;10.80;;;18.20;79.60;;;;;;5084740;28;20016;-67
2022/10/04 04:27:11;;;;;;;13.50;6.90;;;18.10;78.70;;;;;;5087769;28;20093;-68
2022/10/04 04:29:49;;;;;;;29.30;16.15;;;18.20;78.80;;;;;;5087640;28;20111;-68
2022/10/04 04:32:30;;;;;;;42.67;27.15;;;18.20;79.00;;;;;;5090053;28;20398;-67
2022/10/04 04:35:07;;;;;;;43.85;21.33;;;18.20;79.40;;;;;;5088346;28;20039;-67
2022/10/04 04:37:38;;;;;;;21.63;12.40;;;18.20;79.50;;;;;;5088894;28;20032;-68
2022/10/04 04:40:20;;;;;;;18.35;9.25;;;18.20;79.30;;;;;;5088776;28;20051;-68
2022/10/04 04:42:48;;;;;;;17.23;5.95;;;18.20;79.10;;;;;;5083537;28;20492;-69
2022/10/04 04:45:19;;;;;;;10.25;4.20;;;18.20;79.10;;;;;;5088640;28;20020;-70
2022/10/04 04:47:52;;;;;;;10.75;3.92;;;18.10;79.10;;;;;;5090629;28;20502;-68
2022/10/04 04:50:23;;;;;;;12.63;4.65;;;18.10;79.00;;;;;;5092196;28;20032;-68
2022/10/04 04:52:52;;;;;;;8.68;3.60;;;18.10;79.00;;;;;;5085595;28;20047;-68
2022/10/04 04:55:23;;;;;;;9.60;3.13;;;18.10;79.00;;;;;;5072974;28;20409;-68
2022/10/04 04:57:55;;;;;;;8.00;2.90;;;18.10;79.00;;;;;;5086659;28;20039;-68
2022/10/04 05:00:32;;;;;;;13.25;3.58;;;18.10;79.00;;;;;;5090034;28;20103;-68
2022/10/04 05:03:01;;;;;;;8.48;2.53;;;18.10;79.10;;;;;;5087411;28;20058;-70
2022/10/04 05:05:32;;;;;;;26.27;6.60;;;18.10;79.20;;;;;;5092288;28;20050;-70
2022/10/04 05:08:22;;;;;;;12.23;3.70;;;18.10;79.50;;;;;;5092050;28;20032;-69
2022/10/04 05:10:58;;;;;;;11.30;3.97;;;18.10;79.50;;;;;;5087928;28;20024;-70
2022/10/04 05:13:47;;;;;;;7.25;4.65;;;18.10;79.30;;;;;;5088038;28;20732;-67
2022/10/04 05:16:59;;;;;;;11.43;4.80;;;18.10;79.20;;;;;;5070219;28;20471;-68
2022/10/04 05:20:06;;;;;;;11.82;4.47;;;18.10;79.00;;;;;;5082984;28;20384;-68
2022/10/04 05:22:52;;;;;;;;;;;18.10;78.90;;;;;;5087982;28;20091;-68
2022/10/04 05:26:10;;;;;;;10.73;4.43;;;18.10;78.80;;;;;;5070190;28;19912;-68
2022/10/04 05:29:17;;;;;;;22.80;4.53;;;18.10;78.70;;;;;;5087014;28;20043;-69
2022/10/04 05:32:28;;;;;;;14.35;5.22;;;18.10;79.20;;;;;;5087187;28;20423;-70
2022/10/04 05:35:35;;;;;;;14.02;5.45;;;18.10;79.50;;;;;;5086787;28;20417;-70
2022/10/04 05:38:40;;;;;;;10.45;4.85;;;18.10;79.40;;;;;;5088775;28;20028;-68
2022/10/04 05:41:47;;;;;;;12.95;3.88;;;18.10;79.30;;;;;;5069883;28;20391;-68
2022/10/04 05:44:57;;;;;;;13.10;3.67;;;18.10;79.30;;;;;;5086250;28;20563;-69
2022/10/04 05:48:04;;;;;;;15.73;3.83;;;18.10;79.70;;;;;;5088186;28;20054;-68
2022/10/04 05:51:13;;;;;;;14.32;4.38;;;18.10;79.80;;;;;;5087701;28;20085;-69
2022/10/04 05:54:19;;;;;;;11.10;2.55;;;18.10;79.80;;;;;;5087081;28;20024;-68
2022/10/04 05:56:48;;;;;;;16.33;4.35;;;18.20;80.00;;;;;;5087313;28;20355;-69
2022/10/04 05:59:45;;;;;;;7.47;3.33;;;18.20;79.90;;;;;;5087835;28;20027;-67
2022/10/04 06:02:54;;;;;;;7.40;3.03;;;18.20;80.10;;;;;;5084846;28;20440;-68
2022/10/04 06:06:12;;;;;;;13.63;3.45;;;18.20;80.20;;;;;;5052930;28;20025;-68
2022/10/04 06:09:32;;;;;;;6.53;2.33;;;18.30;81.00;;;;;;5087819;28;20119;-69
2022/10/04 06:13:06;;;;;;;9.00;2.30;;;18.30;80.30;;;;;;5086934;28;20909;-68
2022/10/04 06:15:47;;;;;;;7.93;2.42;;;18.30;79.90;;;;;;5086636;28;20039;-69
2022/10/04 06:18:37;;;;;;;10.63;3.38;;;18.40;79.70;;;;;;5087647;28;20048;-70
2022/10/04 06:21:53;;;;;;;10.48;2.53;;;18.40;79.50;;;;;;5084436;28;20028;-69
2022/10/04 06:24:59;;;;;;;10.63;2.55;;;18.40;79.30;;;;;;5087486;28;20478;-68
2022/10/04 06:28:04;;;;;;;13.70;3.63;;;18.40;79.20;;;;;;5085806;28;20040;-68
2022/10/04 06:31:08;;;;;;;18.50;5.28;;;18.40;79.00;;;;;;5087561;28;20024;-68
2022/10/04 06:34:25;;;;;;;13.43;3.35;;;18.40;78.90;;;;;;5088770;28;20025;-67
2022/10/04 06:37:00;;;;;;;;;;;18.50;78.80;;;;;;5087020;28;20039;-68
2022/10/04 06:39:49;;;;;;;29.77;4.20;;;18.50;78.70;;;;;;5086989;28;19908;-69
2022/10/04 06:42:59;;;;;;;12.18;3.30;;;18.50;78.60;;;;;;5085103;28;20031;-69
2022/10/04 06:46:00;;;;;;;9.75;3.42;;;18.50;78.50;;;;;;5063145;28;20459;-68
2022/10/04 06:48:27;;;;;;;5.97;2.42;;;18.60;78.40;;;;;;5087975;28;20039;-68
2022/10/04 06:51:22;;;;;;;7.20;2.17;;;18.60;78.00;;;;;;5088098;28;20104;-67
2022/10/04 06:54:36;;;;;;;14.55;2.78;;;18.60;77.70;;;;;;5032571;28;20088;-67
2022/10/04 06:57:31;;;;;;;4.47;1.95;;;18.60;77.30;;;;;;5091202;28;20031;-70
2022/10/04 07:00:37;;;;;;;4.50;2.10;;;18.60;77.00;;;;;;5091312;28;20028;-68
2022/10/04 07:03:49;;;;;;;5.10;2.13;;;18.70;76.40;;;;;;5086839;28;20028;-70
2022/10/04 07:07:22;;;;;;;10.43;1.75;;;18.70;75.80;;;;;;5069457;28;20094;-68
2022/10/04 07:10:05;;;;;;;9.52;2.10;;;18.70;75.20;;;;;;5089642;28;20423;-70
2022/10/04 07:13:15;;;;;;;7.07;1.70;;;18.80;74.90;;;;;;5091457;28;20086;-69
2022/10/04 07:16:24;;;;;;;11.90;1.85;;;18.80;74.60;;;;;;5088153;28;20024;-67
2022/10/04 07:19:18;;;;;;;12.52;1.75;;;18.80;74.20;;;;;;5066767;28;20040;-70
2022/10/04 07:21:57;;;;;;;5.60;1.48;;;18.80;74.00;;;;;;5091468;28;20039;-67
2022/10/04 07:25:07;;;;;;;5.30;1.30;;;18.80;73.80;;;;;;5092586;28;20019;-68
2022/10/04 07:27:42;;;;;;;6.80;1.63;;;18.80;73.40;;;;;;5088911;28;20527;-69
2022/10/04 07:30:48;;;;;;;3.65;1.65;;;18.80;73.00;;;;;;5091156;28;20028;-69
2022/10/04 07:33:21;;;;;;;3.20;1.42;;;18.80;72.60;;;;;;5088025;28;20028;-67
2022/10/04 07:35:53;;;;;;;7.82;1.48;;;18.90;72.20;;;;;;5093510;28;20021;-68
2022/10/04 07:38:28;;;;;;;5.07;1.75;;;18.90;71.40;;;;;;5090605;28;20489;-67
2022/10/04 07:41:06;;;;;;;8.68;2.00;;;18.90;71.10;;;;;;5090652;28;20013;-68
2022/10/04 07:43:56;;;;;;;10.07;3.03;;;19.00;71.00;;;;;;5091768;28;20117;-68
2022/10/04 07:46:41;;;;;;;14.70;2.10;;;19.00;71.00;;;;;;5091116;28;20438;-69
2022/10/04 07:49:20;;;;;;;8.82;2.00;;;19.10;70.90;;;;;;5092224;28;20101;-68
2022/10/04 07:52:23;;;;;;;10.95;1.52;;;19.10;70.90;;;;;;5091273;28;20024;-69
2022/10/04 07:55:11;;;;;;;6.20;1.83;;;19.10;70.80;;;;;;5089251;28;20028;-68
2022/10/04 07:58:09;;;;;;;8.68;1.63;;;19.10;70.70;;;;;;5088950;28;20016;-68
2022/10/04 08:00:59;;;;;;;12.00;2.20;;;19.20;70.40;;;;;;5089591;28;20479;-67
2022/10/04 14:09:09;;;;;;;5.28;1.95;;;22.80;48.50;;;;;;6115027;22;2342998;-70
2022/10/04 14:11:50;;;;;;;5.45;1.42;;;22.70;48.20;;;;;;6057338;23;20056;-68
2022/10/04 14:14:42;;;;;;;13.15;3.63;;;22.70;48.40;;;;;;6170933;23;20515;-66
2022/10/04 14:17:22;;;;;;;3.47;1.60;;;22.70;49.00;;;;;;6176910;23;20523;-69
2022/10/04 14:20:14;;;;;;;7.72;2.15;;;22.70;51.30;;;;;;6177559;23;20013;-67
2022/10/04 14:22:54;;;;;;;5.25;1.00;;;22.80;51.10;;;;;;6175313;23;20104;-66
2022/10/04 14:25:42;;;;;;;5.85;1.65;;;22.70;49.30;;;;;;6176970;23;20019;-65
2022/10/04 14:28:46;;;;;;;4.22;1.65;;;22.70;49.50;;;;;;6177018;23;20005;-70
2022/10/04 14:31:37;;;;;;;6.03;1.48;;;22.70;49.60;;;;;;6172090;23;20019;-66
2022/10/04 14:34:34;;;;;;;17.00;2.92;;;22.70;49.10;;;;;;6176761;23;20037;-70
2022/10/04 14:37:24;;;;;;;4.68;1.98;;;22.80;49.10;;;;;;6176570;23;20008;-67
2022/10/04 14:40:25;;;;;;;3.58;1.60;;;22.80;48.90;;;;;;6175097;23;20114;-67
2022/10/04 14:43:12;;;;;;;13.95;4.15;;;22.80;48.60;;;;;;6177251;23;20001;-65
2022/10/04 14:45:57;;;;;;;10.85;5.03;;;22.80;48.40;;;;;;6176650;23;20005;-68
2022/10/04 14:48:41;;;;;;;7.07;3.25;;;22.70;48.70;;;;;;6174356;23;20082;-65
2022/10/04 14:51:42;;;;;;;10.83;3.33;;;22.80;48.90;;;;;;6175759;23;20116;-71
2022/10/04 14:54:33;;;;;;;7.47;1.98;;;22.80;49.20;;;;;;6173145;23;20083;-69
2022/10/04 14:57:07;;;;;;;5.15;1.33;;;22.80;49.60;;;;;;6153867;23;20024;-65
2022/10/04 15:00:19;;;;;;;7.75;2.17;;;22.90;49.50;;;;;;6175560;23;20009;-65
2022/10/04 15:02:55;;;;;;;3.05;1.17;;;22.80;49.00;;;;;;6175880;23;20444;-66
2022/10/04 15:05:33;;;;;;;5.05;1.77;;;22.80;49.00;;;;;;6174491;23;20101;-67
2022/10/04 15:08:25;;;;;;;4.28;1.80;;;22.80;49.20;;;;;;6173141;23;20017;-68
2022/10/04 15:10:55;;;;;;;4.63;1.45;;;22.80;49.10;;;;;;6158716;23;20515;-69
2022/10/04 15:13:46;;;;;;;3.63;1.13;;;22.70;49.00;;;;;;6174952;23;20005;-69
2022/10/04 15:16:32;;;;;;;5.97;1.63;;;22.70;48.90;;;;;;6176177;23;20518;-67
2022/10/04 15:19:07;;;;;;;4.47;1.50;;;22.70;49.10;;;;;;6170003;23;20005;-67
2022/10/04 15:21:54;;;;;;;5.03;1.17;;;22.70;48.90;;;;;;6175465;23;20072;-68
2022/10/04 15:24:41;;;;;;;5.72;1.67;;;22.70;48.80;;;;;;6175415;23;20444;-69
2022/10/04 15:27:32;;;;;;;5.30;1.52;;;22.60;48.70;;;;;;6174798;23;20005;-70
2022/10/04 15:30:11;;;;;;;15.15;1.90;;;22.60;48.70;;;;;;6177923;23;20009;-71
2022/10/04 15:33:15;;;;;;;7.63;1.70;;;22.50;49.80;;;;;;6174557;23;20020;-69
2022/10/04 15:36:27;;;;;;;6.13;1.73;;;22.40;49.00;;;;;;6177306;23;20032;-72
2022/10/04 15:39:03;;;;;;;5.63;1.45;;;22.40;49.50;;;;;;6123715;23;20009;-71
2022/10/04 15:41:52;;;;;;;3.60;1.85;;;22.30;49.50;;;;;;6177199;23;20009;-69
2022/10/04 15:44:28;;;;;;;3.50;1.70;;;22.30;49.70;;;;;;6177104;23;20001;-68
2022/10/04 15:47:07;;;;;;;7.40;1.73;;;22.20;49.90;;;;;;6178253;23;20093;-74
2022/10/04 15:50:16;;;;;;;5.28;2.00;;;22.20;50.30;;;;;;6176666;23;20009;-72
2022/10/04 15:52:48;;;;;;;13.80;3.25;;;22.20;50.70;;;;;;6162288;23;20083;-73
2022/10/04 15:55:49;;;;;;;7.00;2.05;;;22.20;50.90;;;;;;6178255;23;20005;-71
2022/10/04 15:58:36;;;;;;;7.60;2.65;;;22.20;51.40;;;;;;6176791;23;20009;-73
2022/10/04 16:01:40;;;;;;;14.40;2.15;;;22.20;51.70;;;;;;6178045;23;20009;-71
2022/10/04 18:19:42;;;;;;;10.63;5.95;;;20.40;54.60;;;;;;4956596;28;20413;-72
2022/10/04 18:22:15;;;;;;;10.30;3.95;;;20.60;57.00;;;;;;4956069;28;20035;-71
2022/10/04 18:24:44;;;;;;;19.15;3.60;;;20.50;57.20;;;;;;4959610;28;20066;-71
2022/10/04 18:27:25;;;;;;;8.38;3.20;;;20.60;57.20;;;;;;4959638;28;20059;-72
2022/10/04 18:30:01;;;;;;;11.23;2.33;;;20.60;57.10;;;;;;4962984;28;20027;-71
2022/10/04 18:32:27;;;;;;;6.15;2.25;;;20.60;56.90;;;;;;4961684;28;20062;-72
2022/10/04 18:35:00;;;;;;;3.58;1.98;;;20.60;56.70;;;;;;4956101;28;20050;-71
2022/10/04 18:37:37;;;;;;;7.35;2.13;;;20.60;56.60;;;;;;4961049;28;20422;-71
2022/10/04 18:40:17;;;;;;;3.67;1.58;;;20.60;56.50;;;;;;4960175;28;20027;-72
2022/10/04 18:43:22;;;;;;;3.80;2.60;;;20.60;56.40;;;;;;4959746;28;20107;-72
2022/10/04 18:46:05;;;;;;;4.65;1.80;;;20.60;56.50;;;;;;4963535;28;20062;-73
2022/10/04 18:48:58;;;;;;;7.10;2.25;;;20.50;56.50;;;;;;4960439;28;20564;-71
2022/10/04 18:51:30;;;;;;;7.70;2.53;;;20.50;56.40;;;;;;4963287;28;20152;-71
2022/10/04 18:54:26;;;;;;;8.55;2.58;;;20.50;56.40;;;;;;4963193;28;20386;-71
2022/10/04 18:57:05;;;;;;;4.03;2.13;;;20.50;56.40;;;;;;4959677;28;20027;-74
2022/10/04 19:02:44;;;;;;;5.93;2.47;;;20.40;56.30;;;;;;4959467;28;20054;-71
2022/10/04 19:05:24;;;;;;;6.50;2.75;;;20.40;56.50;;;;;;4961035;28;20023;-71
2022/10/04 19:08:07;;;;;;;7.35;2.72;;;20.40;56.80;;;;;;4961382;28;20039;-71
2022/10/04 19:11:04;;;;;;;7.30;3.03;;;20.40;56.90;;;;;;4959947;28;20023;-73
2022/10/04 19:13:30;;;;;;;10.38;3.15;;;20.40;56.90;;;;;;4959302;28;20046;-73
2022/10/04 19:16:24;;;;;;;8.25;2.92;;;20.40;56.70;;;;;;4960255;28;20378;-72
2022/10/04 19:19:32;;;;;;;4.82;2.53;;;20.30;56.60;;;;;;4953089;28;20054;-71
2022/10/04 19:22:09;;;;;;;10.52;3.38;;;20.30;56.40;;;;;;4924560;29;20190;-71
2022/10/04 19:24:57;;;;;;;3.55;2.22;;;20.30;56.30;;;;;;4943750;28;20102;-72
2022/10/04 19:27:44;;;;;;;6.43;3.17;;;20.20;56.30;;;;;;4950380;29;20031;-75
2022/10/04 19:30:21;;;;;;;6.88;2.30;;;20.20;56.30;;;;;;4950224;29;20023;-71
2022/10/04 19:33:28;;;;;;;5.15;2.83;;;20.20;56.10;;;;;;4947504;28;20081;-72
2022/10/04 19:36:13;;;;;;;6.05;2.58;;;20.20;55.90;;;;;;4932044;28;20043;-74
2022/10/04 19:38:52;;;;;;;7.40;3.13;;;20.30;56.10;;;;;;4947016;28;20027;-75
2022/10/04 19:41:37;;;;;;;10.93;3.70;;;20.20;56.10;;;;;;4949424;28;20054;-71
2022/10/04 19:44:10;;;;;;;8.00;3.13;;;20.20;56.20;;;;;;4943062;28;20123;-71
2022/10/04 19:47:15;;;;;;;7.38;2.72;;;20.20;56.20;;;;;;4950136;28;20027;-71
2022/10/04 19:49:47;;;;;;;7.65;2.90;;;20.20;56.40;;;;;;4946880;28;20055;-72
2022/10/04 19:52:48;;;;;;;6.20;2.90;;;20.20;56.70;;;;;;4945764;28;20035;-72
2022/10/04 19:55:22;;;;;;;5.78;3.22;;;20.10;56.70;;;;;;4948503;28;20030;-72
2022/10/04 19:58:16;;;;;;;7.75;4.40;;;20.10;56.60;;;;;;4948042;29;20066;-73
2022/10/04 20:00:43;;;;;;;5.65;3.97;;;20.10;56.50;;;;;;4948647;29;20060;-72
2022/10/04 20:03:11;;;;;;;8.18;4.00;;;20.00;56.40;;;;;;4945685;28;20090;-72
2022/10/04 20:05:49;;;;;;;10.05;5.13;;;20.00;56.20;;;;;;4948774;28;20038;-74
2022/10/04 20:08:49;;;;;;;15.32;5.95;;;20.00;56.10;;;;;;4947983;28;20121;-71
2022/10/04 20:11:37;;;;;;;7.40;4.47;;;20.00;56.20;;;;;;4947181;28;20044;-70
2022/10/04 20:14:06;;;;;;;12.70;5.40;;;19.90;56.40;;;;;;4945483;28;20047;-72
2022/10/04 20:16:48;;;;;;;12.52;4.47;;;19.90;56.50;;;;;;4949512;28;20027;-72
2022/10/04 20:19:18;;;;;;;10.52;4.70;;;19.80;56.60;;;;;;4944424;28;20039;-71
2022/10/04 20:21:44;;;;;;;13.55;5.40;;;19.80;57.60;;;;;;4946456;28;20031;-72
2022/10/04 20:24:37;;;;;;;11.15;5.90;;;19.80;57.00;;;;;;4948226;28;20042;-72
2022/10/04 20:27:10;;;;;;;9.50;4.57;;;19.90;57.00;;;;;;4949841;28;20154;-72
2022/10/04 20:29:37;;;;;;;7.55;3.90;;;19.80;56.90;;;;;;4944249;28;20023;-72
2022/10/04 20:32:35;;;;;;;10.10;4.53;;;19.80;57.00;;;;;;4946408;28;20085;-70
2022/10/04 20:35:04;;;;;;;9.98;4.30;;;19.70;57.10;;;;;;4947169;28;20035;-71
2022/10/04 20:37:55;;;;;;;12.55;4.60;;;19.70;57.40;;;;;;4948675;28;20015;-71
2022/10/04 20:40:21;;;;;;;18.75;5.30;;;19.70;57.50;;;;;;4941261;29;20062;-72
2022/10/04 20:43:12;;;;;;;14.68;4.57;;;19.70;57.70;;;;;;4946910;28;20063;-71
2022/10/04 20:45:43;;;;;;;11.18;4.53;;;19.70;57.90;;;;;;4945436;28;20046;-72
2022/10/04 20:48:21;;;;;;;10.27;4.30;;;19.70;57.80;;;;;;4945304;28;20035;-71
2022/10/04 20:50:48;;;;;;;8.55;4.40;;;19.60;57.40;;;;;;4944947;28;20023;-72
2022/10/04 20:53:20;;;;;;;13.82;5.95;;;19.60;57.20;;;;;;4941773;29;20541;-71
2022/10/04 20:55:47;;;;;;;14.63;5.38;;;19.60;57.10;;;;;;4944491;28;20130;-72
2022/10/04 20:58:36;;;;;;;15.77;5.90;;;19.60;57.50;;;;;;4949335;29;20035;-73
2022/10/04 21:01:22;;;;;;;9.27;4.50;;;19.60;58.00;;;;;;4948829;28;20027;-73
2022/10/04 21:03:49;;;;;;;8.07;4.38;;;19.50;58.10;;;;;;4944423;28;20081;-71
2022/10/04 21:06:15;;;;;;;8.88;4.88;;;19.50;58.30;;;;;;4945870;28;20062;-72
2022/10/04 21:08:42;;;;;;;13.48;5.55;;;19.50;58.20;;;;;;4946535;28;20074;-70
2022/10/04 21:11:16;;;;;;;8.98;4.53;;;19.50;58.10;;;;;;4946013;28;20489;-71
2022/10/04 21:13:45;;;;;;;8.13;4.65;;;19.40;57.90;;;;;;4949352;28;20430;-71
2022/10/04 21:16:36;;;;;;;17.00;4.82;;;19.40;58.00;;;;;;4946463;28;20027;-71
2022/10/04 21:19:41;;;;;;;7.78;4.00;;;19.40;58.00;;;;;;4943716;29;20130;-72
2022/10/04 21:22:15;;;;;;;9.95;4.20;;;19.40;58.00;;;;;;4945902;28;20027;-71
2022/10/04 21:24:52;;;;;;;12.05;4.57;;;19.40;58.70;;;;;;4941296;28;20074;-71
2022/10/04 21:27:32;;;;;;;10.30;4.60;;;19.40;58.20;;;;;;4944662;28;20066;-71
2022/10/04 21:30:07;;;;;;;11.65;4.10;;;19.40;58.30;;;;;;4945850;28;20031;-72
2022/10/04 21:32:36;;;;;;;11.13;4.93;;;19.30;58.30;;;;;;4946604;28;20023;-71
2022/10/04 21:35:05;;;;;;;8.40;4.75;;;19.30;58.50;;;;;;4943592;28;20035;-72
2022/10/04 21:37:32;;;;;;;10.07;4.28;;;19.30;58.60;;;;;;4945476;28;20027;-72
2022/10/04 21:39:58;;;;;;;11.80;4.45;;;19.20;58.30;;;;;;4946417;28;20506;-71
2022/10/04 21:42:25;;;;;;;8.40;4.15;;;19.20;58.20;;;;;;4946659;28;20020;-71
2022/10/04 21:44:51;;;;;;;12.38;4.57;;;19.20;58.20;;;;;;4941140;28;20022;-71
2022/10/04 21:47:21;;;;;;;13.18;4.78;;;19.20;58.40;;;;;;4948844;28;20032;-72
2022/10/04 21:49:49;;;;;;;6.13;3.45;;;19.20;58.40;;;;;;4947485;28;20027;-72
2022/10/04 21:52:16;;;;;;;7.97;3.72;;;19.20;58.50;;;;;;4946859;28;20031;-71
2022/10/04 21:54:44;;;;;;;7.03;4.03;;;19.10;58.50;;;;;;4943521;28;20666;-72
2022/10/04 21:57:11;;;;;;;12.18;5.00;;;19.10;58.50;;;;;;4947044;28;20039;-71
2022/10/04 21:59:38;;;;;;;4.85;3.90;;;19.10;58.40;;;;;;4943837;29;20042;-71
2022/10/04 22:02:06;;;;;;;10.50;4.97;;;19.10;58.40;;;;;;4948036;28;20039;-72
2022/10/04 22:04:32;;;;;;;9.05;3.08;;;19.10;58.30;;;;;;4947810;28;20027;-71
